sensor_id;sensor_type;location;lat;lon;timestamp;temperature;humidity
45409;DHT22;31162;51.076;3.784;2023-05-07T00:00:37;17.60;99.90
45409;DHT22;31162;51.076;3.784;2023-05-07T00:03:03;17.50;99.90
45409;DHT22;31162;51.076;3.784;2023-05-07T00:05:29;17.50;99.90
45409;DHT22;31162;51.076;3.784;2023-05-07T00:07:55;17.50;99.90
45409;DHT22;31162;51.076;3.784;2023-05-07T00:10:21;17.50;99.90
45409;DHT22;31162;51.076;3.784;2023-05-07T00:12:47;17.50;99.90
45409;DHT22;31162;51.076;3.784;2023-05-07T00:15:12;17.40;99.90
45409;DHT22;31162;51.076;3.784;2023-05-07T00:17:38;17.40;99.90
45409;DHT22;31162;51.076;3.784;2023-05-07T00:20:04;17.40;99.90
45409;DHT22;31162;51.076;3.784;2023-05-07T00:22:31;17.40;99.90
45409;DHT22;31162;51.076;3.784;2023-05-07T00:24:57;17.30;99.90
45409;DHT22;31162;51.076;3.784;2023-05-07T00:27:28;17.30;99.90
45409;DHT22;31162;51.076;3.784;2023-05-07T00:29:53;17.30;99.90
45409;DHT22;31162;51.076;3.784;2023-05-07T00:32:19;17.40;99.90
45409;DHT22;31162;51.076;3.784;2023-05-07T00:34:45;17.50;99.90
45409;DHT22;31162;51.076;3.784;2023-05-07T00:37:10;17.40;99.90
45409;DHT22;31162;51.076;3.784;2023-05-07T00:39:37;17.40;99.90
45409;DHT22;31162;51.076;3.784;2023-05-07T00:42:03;17.40;99.90
45409;DHT22;31162;51.076;3.784;2023-05-07T00:44:29;17.30;99.90
45409;DHT22;31162;51.076;3.784;2023-05-07T00:46:56;17.20;99.90
45409;DHT22;31162;51.076;3.784;2023-05-07T00:49:24;17.20;99.90
45409;DHT22;31162;51.076;3.784;2023-05-07T00:51:52;17.00;99.90
45409;DHT22;31162;51.076;3.784;2023-05-07T00:54:18;17.10;99.90
45409;DHT22;31162;51.076;3.784;2023-05-07T00:56:45;17.00;99.90
45409;DHT22;31162;51.076;3.784;2023-05-07T00:59:10;17.00;99.90
45409;DHT22;31162;51.076;3.784;2023-05-07T01:01:36;17.10;99.90
45409;DHT22;31162;51.076;3.784;2023-05-07T01:04:02;17.20;99.90
45409;DHT22;31162;51.076;3.784;2023-05-07T01:06:29;17.10;99.90
45409;DHT22;31162;51.076;3.784;2023-05-07T01:08:54;17.10;99.90
45409;DHT22;31162;51.076;3.784;2023-05-07T01:11:23;17.00;99.90
45409;DHT22;31162;51.076;3.784;2023-05-07T01:13:49;17.00;99.90
45409;DHT22;31162;51.076;3.784;2023-05-07T01:16:15;17.00;99.90
45409;DHT22;31162;51.076;3.784;2023-05-07T01:18:41;16.90;99.90
45409;DHT22;31162;51.076;3.784;2023-05-07T01:21:08;17.00;99.90
45409;DHT22;31162;51.076;3.784;2023-05-07T01:23:36;17.00;99.90
45409;DHT22;31162;51.076;3.784;2023-05-07T01:26:02;17.00;99.90
45409;DHT22;31162;51.076;3.784;2023-05-07T01:28:28;17.00;99.90
45409;DHT22;31162;51.076;3.784;2023-05-07T01:30:58;17.00;99.90
45409;DHT22;31162;51.076;3.784;2023-05-07T01:33:25;16.80;99.90
45409;DHT22;31162;51.076;3.784;2023-05-07T01:35:53;16.90;99.90
45409;DHT22;31162;51.076;3.784;2023-05-07T01:38:19;16.80;99.90
45409;DHT22;31162;51.076;3.784;2023-05-07T01:40:46;16.70;99.90
45409;DHT22;31162;51.076;3.784;2023-05-07T01:43:12;16.70;99.90
45409;DHT22;31162;51.076;3.784;2023-05-07T01:45:38;16.60;99.90
45409;DHT22;31162;51.076;3.784;2023-05-07T01:48:06;16.40;99.90
45409;DHT22;31162;51.076;3.784;2023-05-07T01:50:32;16.50;99.90
45409;DHT22;31162;51.076;3.784;2023-05-07T01:52:58;16.40;99.90
45409;DHT22;31162;51.076;3.784;2023-05-07T01:55:26;16.40;99.90
45409;DHT22;31162;51.076;3.784;2023-05-07T01:57:52;16.30;99.90
45409;DHT22;31162;51.076;3.784;2023-05-07T02:00:17;16.30;99.90
45409;DHT22;31162;51.076;3.784;2023-05-07T02:02:44;16.30;99.90
45409;DHT22;31162;51.076;3.784;2023-05-07T02:05:10;16.30;99.90
45409;DHT22;31162;51.076;3.784;2023-05-07T02:07:35;16.40;99.90
45409;DHT22;31162;51.076;3.784;2023-05-07T02:10:01;16.40;99.90
45409;DHT22;31162;51.076;3.784;2023-05-07T02:12:27;16.30;99.90
45409;DHT22;31162;51.076;3.784;2023-05-07T02:14:52;16.40;99.90
45409;DHT22;31162;51.076;3.784;2023-05-07T02:17:18;16.40;99.90
45409;DHT22;31162;51.076;3.784;2023-05-07T02:19:44;16.30;99.90
45409;DHT22;31162;51.076;3.784;2023-05-07T02:22:09;16.30;99.90
45409;DHT22;31162;51.076;3.784;2023-05-07T02:24:35;16.20;99.90
45409;DHT22;31162;51.076;3.784;2023-05-07T02:27:01;16.20;99.90
45409;DHT22;31162;51.076;3.784;2023-05-07T02:29:27;16.20;99.90
45409;DHT22;31162;51.076;3.784;2023-05-07T02:31:53;16.30;99.90
45409;DHT22;31162;51.076;3.784;2023-05-07T02:34:19;16.30;99.90
45409;DHT22;31162;51.076;3.784;2023-05-07T02:36:48;16.30;99.90
45409;DHT22;31162;51.076;3.784;2023-05-07T02:39:14;16.20;99.90
45409;DHT22;31162;51.076;3.784;2023-05-07T02:41:40;16.20;99.90
45409;DHT22;31162;51.076;3.784;2023-05-07T02:44:06;16.20;99.90
45409;DHT22;31162;51.076;3.784;2023-05-07T02:46:32;16.20;99.90
45409;DHT22;31162;51.076;3.784;2023-05-07T02:48:57;16.20;99.90
45409;DHT22;31162;51.076;3.784;2023-05-07T02:51:23;16.10;99.90
45409;DHT22;31162;51.076;3.784;2023-05-07T02:53:49;16.00;99.90
45409;DHT22;31162;51.076;3.784;2023-05-07T02:56:15;16.00;99.90
45409;DHT22;31162;51.076;3.784;2023-05-07T02:58:40;16.10;99.90
45409;DHT22;31162;51.076;3.784;2023-05-07T03:01:08;16.10;99.90
45409;DHT22;31162;51.076;3.784;2023-05-07T03:03:34;16.10;99.90
45409;DHT22;31162;51.076;3.784;2023-05-07T03:06:00;16.10;99.90
45409;DHT22;31162;51.076;3.784;2023-05-07T03:08:26;16.10;99.90
45409;DHT22;31162;51.076;3.784;2023-05-07T03:10:52;16.10;99.90
45409;DHT22;31162;51.076;3.784;2023-05-07T03:13:18;16.10;99.90
45409;DHT22;31162;51.076;3.784;2023-05-07T03:15:44;16.10;99.90
45409;DHT22;31162;51.076;3.784;2023-05-07T03:18:09;16.00;99.90
45409;DHT22;31162;51.076;3.784;2023-05-07T03:20:38;16.10;99.90
45409;DHT22;31162;51.076;3.784;2023-05-07T03:23:03;16.00;99.90
45409;DHT22;31162;51.076;3.784;2023-05-07T03:25:29;16.00;99.90
45409;DHT22;31162;51.076;3.784;2023-05-07T03:27:56;16.00;99.90
45409;DHT22;31162;51.076;3.784;2023-05-07T03:30:21;16.10;99.90
45409;DHT22;31162;51.076;3.784;2023-05-07T03:32:47;16.00;99.90
45409;DHT22;31162;51.076;3.784;2023-05-07T03:35:13;16.10;99.90
45409;DHT22;31162;51.076;3.784;2023-05-07T03:37:39;16.10;99.90
45409;DHT22;31162;51.076;3.784;2023-05-07T03:40:05;16.00;99.90
45409;DHT22;31162;51.076;3.784;2023-05-07T03:42:31;16.00;99.90
45409;DHT22;31162;51.076;3.784;2023-05-07T03:44:57;16.10;99.90
45409;DHT22;31162;51.076;3.784;2023-05-07T03:47:22;16.10;99.90
45409;DHT22;31162;51.076;3.784;2023-05-07T03:49:48;16.10;99.90
45409;DHT22;31162;51.076;3.784;2023-05-07T03:52:15;16.10;99.90
45409;DHT22;31162;51.076;3.784;2023-05-07T03:54:41;16.10;99.90
45409;DHT22;31162;51.076;3.784;2023-05-07T03:57:07;16.20;99.90
45409;DHT22;31162;51.076;3.784;2023-05-07T03:59:32;16.20;99.90
45409;DHT22;31162;51.076;3.784;2023-05-07T04:01:58;16.20;99.90
45409;DHT22;31162;51.076;3.784;2023-05-07T04:04:24;16.10;99.90
45409;DHT22;31162;51.076;3.784;2023-05-07T04:06:49;16.10;99.90
45409;DHT22;31162;51.076;3.784;2023-05-07T04:09:15;16.10;99.90
45409;DHT22;31162;51.076;3.784;2023-05-07T04:11:40;16.00;99.90
45409;DHT22;31162;51.076;3.784;2023-05-07T04:14:06;16.10;99.90
45409;DHT22;31162;51.076;3.784;2023-05-07T04:16:32;16.10;99.90
45409;DHT22;31162;51.076;3.784;2023-05-07T04:18:57;16.20;99.90
45409;DHT22;31162;51.076;3.784;2023-05-07T04:21:23;16.20;99.90
45409;DHT22;31162;51.076;3.784;2023-05-07T04:23:49;16.20;99.90
45409;DHT22;31162;51.076;3.784;2023-05-07T04:26:15;16.20;99.90
45409;DHT22;31162;51.076;3.784;2023-05-07T04:28:41;16.20;99.90
45409;DHT22;31162;51.076;3.784;2023-05-07T04:31:07;16.30;99.90
45409;DHT22;31162;51.076;3.784;2023-05-07T04:33:33;16.30;99.90
45409;DHT22;31162;51.076;3.784;2023-05-07T04:36:02;16.30;99.90
45409;DHT22;31162;51.076;3.784;2023-05-07T04:38:30;16.30;99.90
45409;DHT22;31162;51.076;3.784;2023-05-07T04:40:56;16.40;99.90
45409;DHT22;31162;51.076;3.784;2023-05-07T04:43:22;16.50;99.90
45409;DHT22;31162;51.076;3.784;2023-05-07T04:45:50;16.40;99.90
45409;DHT22;31162;51.076;3.784;2023-05-07T04:48:15;16.50;99.90
45409;DHT22;31162;51.076;3.784;2023-05-07T04:50:41;16.50;99.90
45409;DHT22;31162;51.076;3.784;2023-05-07T04:53:07;16.60;99.90
45409;DHT22;31162;51.076;3.784;2023-05-07T04:55:34;16.60;99.90
45409;DHT22;31162;51.076;3.784;2023-05-07T04:58:00;16.70;99.90
45409;DHT22;31162;51.076;3.784;2023-05-07T05:00:27;16.70;99.90
45409;DHT22;31162;51.076;3.784;2023-05-07T05:02:52;16.80;99.90
45409;DHT22;31162;51.076;3.784;2023-05-07T05:05:18;16.90;99.90
45409;DHT22;31162;51.076;3.784;2023-05-07T05:07:44;16.90;99.90
45409;DHT22;31162;51.076;3.784;2023-05-07T05:10:10;16.80;99.90
45409;DHT22;31162;51.076;3.784;2023-05-07T05:12:35;16.80;99.90
45409;DHT22;31162;51.076;3.784;2023-05-07T05:15:01;16.80;99.90
45409;DHT22;31162;51.076;3.784;2023-05-07T05:17:26;16.80;99.90
45409;DHT22;31162;51.076;3.784;2023-05-07T05:19:54;16.80;99.90
45409;DHT22;31162;51.076;3.784;2023-05-07T05:22:20;16.80;99.90
45409;DHT22;31162;51.076;3.784;2023-05-07T05:24:45;16.70;99.90
45409;DHT22;31162;51.076;3.784;2023-05-07T05:27:11;16.80;99.90
45409;DHT22;31162;51.076;3.784;2023-05-07T05:29:37;16.80;99.90
45409;DHT22;31162;51.076;3.784;2023-05-07T05:32:02;16.70;99.90
45409;DHT22;31162;51.076;3.784;2023-05-07T05:34:28;16.70;99.90
45409;DHT22;31162;51.076;3.784;2023-05-07T05:36:54;16.60;99.90
45409;DHT22;31162;51.076;3.784;2023-05-07T05:39:19;16.50;99.90
45409;DHT22;31162;51.076;3.784;2023-05-07T05:41:46;16.50;99.90
45409;DHT22;31162;51.076;3.784;2023-05-07T05:44:12;16.50;99.90
45409;DHT22;31162;51.076;3.784;2023-05-07T05:46:38;16.50;99.90
45409;DHT22;31162;51.076;3.784;2023-05-07T05:49:03;16.50;99.90
45409;DHT22;31162;51.076;3.784;2023-05-07T05:51:29;16.50;99.90
45409;DHT22;31162;51.076;3.784;2023-05-07T05:53:54;16.40;99.90
45409;DHT22;31162;51.076;3.784;2023-05-07T05:56:20;16.30;99.90
45409;DHT22;31162;51.076;3.784;2023-05-07T05:58:46;16.40;99.90
45409;DHT22;31162;51.076;3.784;2023-05-07T06:01:12;16.40;99.90
45409;DHT22;31162;51.076;3.784;2023-05-07T06:03:38;16.30;99.90
45409;DHT22;31162;51.076;3.784;2023-05-07T06:06:03;16.30;99.90
45409;DHT22;31162;51.076;3.784;2023-05-07T06:08:29;16.40;99.90
45409;DHT22;31162;51.076;3.784;2023-05-07T06:10:56;16.40;99.90
45409;DHT22;31162;51.076;3.784;2023-05-07T06:13:22;16.50;99.90
45409;DHT22;31162;51.076;3.784;2023-05-07T06:15:49;16.60;99.90
45409;DHT22;31162;51.076;3.784;2023-05-07T06:18:15;16.60;99.90
45409;DHT22;31162;51.076;3.784;2023-05-07T06:20:40;16.70;99.90
45409;DHT22;31162;51.076;3.784;2023-05-07T06:23:06;16.70;99.90
45409;DHT22;31162;51.076;3.784;2023-05-07T06:25:32;16.70;99.90
45409;DHT22;31162;51.076;3.784;2023-05-07T06:27:57;16.70;99.90
45409;DHT22;31162;51.076;3.784;2023-05-07T06:30:23;16.70;99.90
45409;DHT22;31162;51.076;3.784;2023-05-07T06:32:49;16.60;99.90
45409;DHT22;31162;51.076;3.784;2023-05-07T06:35:14;16.60;99.90
45409;DHT22;31162;51.076;3.784;2023-05-07T06:37:41;16.60;99.90
45409;DHT22;31162;51.076;3.784;2023-05-07T06:40:08;16.70;99.90
45409;DHT22;31162;51.076;3.784;2023-05-07T06:42:35;16.60;99.90
45409;DHT22;31162;51.076;3.784;2023-05-07T06:45:01;16.60;99.90
45409;DHT22;31162;51.076;3.784;2023-05-07T06:47:28;16.60;99.90
45409;DHT22;31162;51.076;3.784;2023-05-07T06:49:53;16.60;99.90
45409;DHT22;31162;51.076;3.784;2023-05-07T06:52:19;16.60;99.90
45409;DHT22;31162;51.076;3.784;2023-05-07T06:54:45;16.70;99.90
45409;DHT22;31162;51.076;3.784;2023-05-07T06:57:10;16.80;99.90
45409;DHT22;31162;51.076;3.784;2023-05-07T06:59:38;16.90;99.90
45409;DHT22;31162;51.076;3.784;2023-05-07T07:02:04;16.80;99.90
45409;DHT22;31162;51.076;3.784;2023-05-07T07:04:29;16.90;99.90
45409;DHT22;31162;51.076;3.784;2023-05-07T07:06:55;16.90;99.90
45409;DHT22;31162;51.076;3.784;2023-05-07T07:09:22;16.90;99.90
45409;DHT22;31162;51.076;3.784;2023-05-07T07:11:47;17.00;99.90
45409;DHT22;31162;51.076;3.784;2023-05-07T07:14:13;17.10;99.90
45409;DHT22;31162;51.076;3.784;2023-05-07T07:16:39;17.10;99.90
45409;DHT22;31162;51.076;3.784;2023-05-07T07:19:05;17.20;99.90
45409;DHT22;31162;51.076;3.784;2023-05-07T07:21:31;17.20;99.90
45409;DHT22;31162;51.076;3.784;2023-05-07T07:23:57;17.20;99.90
45409;DHT22;31162;51.076;3.784;2023-05-07T07:26:23;17.30;99.90
45409;DHT22;31162;51.076;3.784;2023-05-07T07:28:48;17.30;99.90
45409;DHT22;31162;51.076;3.784;2023-05-07T07:31:14;17.30;99.90
45409;DHT22;31162;51.076;3.784;2023-05-07T07:33:40;17.20;99.90
45409;DHT22;31162;51.076;3.784;2023-05-07T07:36:06;17.10;99.90
45409;DHT22;31162;51.076;3.784;2023-05-07T07:38:33;17.10;99.90
45409;DHT22;31162;51.076;3.784;2023-05-07T07:40:59;17.10;99.90
45409;DHT22;31162;51.076;3.784;2023-05-07T07:43:25;17.20;99.90
45409;DHT22;31162;51.076;3.784;2023-05-07T07:45:50;17.30;99.90
45409;DHT22;31162;51.076;3.784;2023-05-07T07:48:16;17.30;99.90
45409;DHT22;31162;51.076;3.784;2023-05-07T07:50:42;17.40;99.90
45409;DHT22;31162;51.076;3.784;2023-05-07T07:53:07;17.30;99.90
45409;DHT22;31162;51.076;3.784;2023-05-07T07:55:38;17.30;99.90
45409;DHT22;31162;51.076;3.784;2023-05-07T07:58:04;17.30;99.90
45409;DHT22;31162;51.076;3.784;2023-05-07T08:00:30;17.30;99.90
45409;DHT22;31162;51.076;3.784;2023-05-07T08:02:55;17.30;99.90
45409;DHT22;31162;51.076;3.784;2023-05-07T08:05:21;17.30;99.90
45409;DHT22;31162;51.076;3.784;2023-05-07T08:07:49;17.30;99.90
45409;DHT22;31162;51.076;3.784;2023-05-07T08:10:19;17.30;99.90
45409;DHT22;31162;51.076;3.784;2023-05-07T08:12:48;17.30;99.90
45409;DHT22;31162;51.076;3.784;2023-05-07T08:15:14;17.20;99.90
45409;DHT22;31162;51.076;3.784;2023-05-07T08:17:40;17.30;99.90
45409;DHT22;31162;51.076;3.784;2023-05-07T08:20:06;17.20;99.90
45409;DHT22;31162;51.076;3.784;2023-05-07T08:22:32;17.20;99.90
45409;DHT22;31162;51.076;3.784;2023-05-07T08:24:57;17.20;99.90
45409;DHT22;31162;51.076;3.784;2023-05-07T08:27:23;17.20;99.90
45409;DHT22;31162;51.076;3.784;2023-05-07T08:29:49;17.30;99.90
45409;DHT22;31162;51.076;3.784;2023-05-07T08:32:15;17.30;99.90
45409;DHT22;31162;51.076;3.784;2023-05-07T08:34:40;17.30;99.90
45409;DHT22;31162;51.076;3.784;2023-05-07T08:37:06;17.40;99.90
45409;DHT22;31162;51.076;3.784;2023-05-07T08:39:32;17.40;99.90
45409;DHT22;31162;51.076;3.784;2023-05-07T08:42:00;17.40;99.90
45409;DHT22;31162;51.076;3.784;2023-05-07T08:44:28;17.40;99.90
45409;DHT22;31162;51.076;3.784;2023-05-07T08:46:58;17.50;99.90
45409;DHT22;31162;51.076;3.784;2023-05-07T08:49:26;17.50;99.90
45409;DHT22;31162;51.076;3.784;2023-05-07T08:51:52;17.50;99.90
45409;DHT22;31162;51.076;3.784;2023-05-07T08:54:18;17.40;99.90
45409;DHT22;31162;51.076;3.784;2023-05-07T08:56:45;17.50;99.90
45409;DHT22;31162;51.076;3.784;2023-05-07T08:59:11;17.60;99.90
45409;DHT22;31162;51.076;3.784;2023-05-07T09:01:36;17.60;99.90
45409;DHT22;31162;51.076;3.784;2023-05-07T09:04:04;17.60;99.90
45409;DHT22;31162;51.076;3.784;2023-05-07T09:06:30;17.60;99.90
45409;DHT22;31162;51.076;3.784;2023-05-07T09:08:56;17.70;99.90
45409;DHT22;31162;51.076;3.784;2023-05-07T09:11:23;17.80;99.90
45409;DHT22;31162;51.076;3.784;2023-05-07T09:13:54;17.90;99.90
45409;DHT22;31162;51.076;3.784;2023-05-07T09:16:21;17.90;99.90
45409;DHT22;31162;51.076;3.784;2023-05-07T09:18:48;18.00;99.90
45409;DHT22;31162;51.076;3.784;2023-05-07T09:21:16;17.90;99.90
45409;DHT22;31162;51.076;3.784;2023-05-07T09:23:42;17.90;99.90
45409;DHT22;31162;51.076;3.784;2023-05-07T09:26:08;17.90;99.90
45409;DHT22;31162;51.076;3.784;2023-05-07T09:28:41;18.00;99.90
45409;DHT22;31162;51.076;3.784;2023-05-07T09:31:11;18.10;99.90
45409;DHT22;31162;51.076;3.784;2023-05-07T09:33:38;18.10;99.90
45409;DHT22;31162;51.076;3.784;2023-05-07T09:36:05;18.30;99.90
45409;DHT22;31162;51.076;3.784;2023-05-07T09:38:34;18.30;99.90
45409;DHT22;31162;51.076;3.784;2023-05-07T09:41:10;18.40;99.90
45409;DHT22;31162;51.076;3.784;2023-05-07T09:43:37;18.50;99.90
45409;DHT22;31162;51.076;3.784;2023-05-07T09:48:37;18.70;99.90
45409;DHT22;31162;51.076;3.784;2023-05-07T09:51:11;18.80;99.90
45409;DHT22;31162;51.076;3.784;2023-05-07T09:53:38;18.80;99.90
45409;DHT22;31162;51.076;3.784;2023-05-07T09:56:05;18.90;99.90
45409;DHT22;31162;51.076;3.784;2023-05-07T09:58:32;19.00;99.90
45409;DHT22;31162;51.076;3.784;2023-05-07T10:00:59;19.00;99.90
45409;DHT22;31162;51.076;3.784;2023-05-07T10:03:27;19.10;99.90
45409;DHT22;31162;51.076;3.784;2023-05-07T10:05:55;19.10;99.90
45409;DHT22;31162;51.076;3.784;2023-05-07T10:08:21;19.10;99.90
45409;DHT22;31162;51.076;3.784;2023-05-07T10:10:47;19.20;99.90
45409;DHT22;31162;51.076;3.784;2023-05-07T10:13:14;19.30;99.90
45409;DHT22;31162;51.076;3.784;2023-05-07T10:15:41;19.40;99.90
45409;DHT22;31162;51.076;3.784;2023-05-07T10:18:07;19.40;99.90
45409;DHT22;31162;51.076;3.784;2023-05-07T10:20:34;19.40;99.90
45409;DHT22;31162;51.076;3.784;2023-05-07T10:23:03;19.40;99.90
45409;DHT22;31162;51.076;3.784;2023-05-07T10:25:31;19.60;99.90
45409;DHT22;31162;51.076;3.784;2023-05-07T10:28:01;19.70;99.90
45409;DHT22;31162;51.076;3.784;2023-05-07T10:31:02;19.80;99.90
45409;DHT22;31162;51.076;3.784;2023-05-07T10:33:31;19.40;99.90
45409;DHT22;31162;51.076;3.784;2023-05-07T10:36:00;18.90;99.90
45409;DHT22;31162;51.076;3.784;2023-05-07T10:38:28;19.00;99.90
45409;DHT22;31162;51.076;3.784;2023-05-07T10:40:55;19.30;99.90
45409;DHT22;31162;51.076;3.784;2023-05-07T10:43:21;19.60;99.90
45409;DHT22;31162;51.076;3.784;2023-05-07T10:46:20;19.90;99.90
45409;DHT22;31162;51.076;3.784;2023-05-07T10:49:12;20.20;99.90
45409;DHT22;31162;51.076;3.784;2023-05-07T10:51:38;20.40;99.90
45409;DHT22;31162;51.076;3.784;2023-05-07T10:56:40;21.10;99.90
45409;DHT22;31162;51.076;3.784;2023-05-07T11:02:04;21.40;99.90
45409;DHT22;31162;51.076;3.784;2023-05-07T11:04:32;21.60;99.90
45409;DHT22;31162;51.076;3.784;2023-05-07T11:15:12;23.50;99.90
45409;DHT22;31162;51.076;3.784;2023-05-07T11:17:58;23.80;99.90
45409;DHT22;31162;51.076;3.784;2023-05-07T11:20:56;23.60;99.90
45409;DHT22;31162;51.076;3.784;2023-05-07T11:26:04;23.30;99.90
45409;DHT22;31162;51.076;3.784;2023-05-07T11:28:31;23.10;99.90
45409;DHT22;31162;51.076;3.784;2023-05-07T11:31:01;23.20;99.90
45409;DHT22;31162;51.076;3.784;2023-05-07T11:33:27;23.30;99.90
45409;DHT22;31162;51.076;3.784;2023-05-07T11:35:54;23.20;99.90
45409;DHT22;31162;51.076;3.784;2023-05-07T11:38:19;23.00;99.90
45409;DHT22;31162;51.076;3.784;2023-05-07T11:40:49;22.90;99.90
45409;DHT22;31162;51.076;3.784;2023-05-07T11:43:17;22.80;99.90
45409;DHT22;31162;51.076;3.784;2023-05-07T11:45:45;22.60;99.90
45409;DHT22;31162;51.076;3.784;2023-05-07T11:48:12;22.40;99.90
45409;DHT22;31162;51.076;3.784;2023-05-07T11:53:25;21.80;99.90
45409;DHT22;31162;51.076;3.784;2023-05-07T11:55:57;21.40;99.90
45409;DHT22;31162;51.076;3.784;2023-05-07T11:58:24;21.30;99.90
45409;DHT22;31162;51.076;3.784;2023-05-07T12:00:54;21.20;99.90
45409;DHT22;31162;51.076;3.784;2023-05-07T12:03:20;21.20;99.90
45409;DHT22;31162;51.076;3.784;2023-05-07T12:05:47;21.10;99.90
45409;DHT22;31162;51.076;3.784;2023-05-07T12:08:17;21.00;99.90
45409;DHT22;31162;51.076;3.784;2023-05-07T12:10:44;21.00;99.90
45409;DHT22;31162;51.076;3.784;2023-05-07T12:13:21;21.00;99.90
45409;DHT22;31162;51.076;3.784;2023-05-07T12:15:46;21.20;99.90
45409;DHT22;31162;51.076;3.784;2023-05-07T12:18:15;21.60;99.90
45409;DHT22;31162;51.076;3.784;2023-05-07T12:20:41;22.00;99.90
45409;DHT22;31162;51.076;3.784;2023-05-07T12:23:07;22.00;99.90
45409;DHT22;31162;51.076;3.784;2023-05-07T12:25:37;22.30;99.90
45409;DHT22;31162;51.076;3.784;2023-05-07T12:28:03;22.50;99.90
45409;DHT22;31162;51.076;3.784;2023-05-07T12:30:40;22.80;99.90
45409;DHT22;31162;51.076;3.784;2023-05-07T12:33:06;23.20;99.90
45409;DHT22;31162;51.076;3.784;2023-05-07T12:35:36;23.40;99.90
45409;DHT22;31162;51.076;3.784;2023-05-07T12:38:08;23.30;99.90
45409;DHT22;31162;51.076;3.784;2023-05-07T12:40:41;23.20;99.90
45409;DHT22;31162;51.076;3.784;2023-05-07T12:43:14;23.10;99.90
45409;DHT22;31162;51.076;3.784;2023-05-07T12:45:41;23.00;99.90
45409;DHT22;31162;51.076;3.784;2023-05-07T12:48:10;22.80;99.90
45409;DHT22;31162;51.076;3.784;2023-05-07T12:50:36;22.80;99.90
45409;DHT22;31162;51.076;3.784;2023-05-07T12:53:04;23.00;99.90
45409;DHT22;31162;51.076;3.784;2023-05-07T12:55:44;22.50;99.90
45409;DHT22;31162;51.076;3.784;2023-05-07T12:58:21;22.70;99.90
45409;DHT22;31162;51.076;3.784;2023-05-07T13:00:49;23.10;99.90
45409;DHT22;31162;51.076;3.784;2023-05-07T13:03:32;23.30;99.90
45409;DHT22;31162;51.076;3.784;2023-05-07T13:06:00;23.50;99.90
45409;DHT22;31162;51.076;3.784;2023-05-07T13:08:28;23.70;99.90
45409;DHT22;31162;51.076;3.784;2023-05-07T13:10:54;23.90;99.90
45409;DHT22;31162;51.076;3.784;2023-05-07T13:13:21;23.90;99.90
45409;DHT22;31162;51.076;3.784;2023-05-07T13:15:49;24.10;99.90
45409;DHT22;31162;51.076;3.784;2023-05-07T13:18:15;23.80;99.90
45409;DHT22;31162;51.076;3.784;2023-05-07T13:20:41;24.10;99.90
45409;DHT22;31162;51.076;3.784;2023-05-07T13:23:09;24.20;99.90
45409;DHT22;31162;51.076;3.784;2023-05-07T13:25:35;24.10;99.90
45409;DHT22;31162;51.076;3.784;2023-05-07T13:28:00;23.90;99.90
45409;DHT22;31162;51.076;3.784;2023-05-07T13:30:26;24.00;99.90
45409;DHT22;31162;51.076;3.784;2023-05-07T13:32:55;24.30;99.90
45409;DHT22;31162;51.076;3.784;2023-05-07T13:35:21;24.30;99.90
45409;DHT22;31162;51.076;3.784;2023-05-07T13:37:47;24.50;99.90
45409;DHT22;31162;51.076;3.784;2023-05-07T13:40:14;24.50;99.90
45409;DHT22;31162;51.076;3.784;2023-05-07T13:42:40;24.50;99.90
45409;DHT22;31162;51.076;3.784;2023-05-07T13:45:07;24.90;99.90
45409;DHT22;31162;51.076;3.784;2023-05-07T13:47:33;25.40;99.90
45409;DHT22;31162;51.076;3.784;2023-05-07T13:49:58;25.70;99.90
45409;DHT22;31162;51.076;3.784;2023-05-07T13:52:24;25.30;99.90
45409;DHT22;31162;51.076;3.784;2023-05-07T13:54:50;25.40;99.90
45409;DHT22;31162;51.076;3.784;2023-05-07T13:57:17;25.80;99.90
45409;DHT22;31162;51.076;3.784;2023-05-07T13:59:43;25.80;99.90
45409;DHT22;31162;51.076;3.784;2023-05-07T14:02:09;25.80;99.90
45409;DHT22;31162;51.076;3.784;2023-05-07T14:04:37;25.70;99.90
45409;DHT22;31162;51.076;3.784;2023-05-07T14:07:03;25.00;99.90
45409;DHT22;31162;51.076;3.784;2023-05-07T14:09:28;24.80;99.90
45409;DHT22;31162;51.076;3.784;2023-05-07T14:11:54;24.80;99.90
45409;DHT22;31162;51.076;3.784;2023-05-07T14:14:20;25.00;99.90
45409;DHT22;31162;51.076;3.784;2023-05-07T14:16:46;25.20;99.90
45409;DHT22;31162;51.076;3.784;2023-05-07T14:19:12;25.10;99.90
45409;DHT22;31162;51.076;3.784;2023-05-07T14:21:38;24.90;99.90
45409;DHT22;31162;51.076;3.784;2023-05-07T14:24:06;24.70;99.90
45409;DHT22;31162;51.076;3.784;2023-05-07T14:26:32;24.60;99.90
45409;DHT22;31162;51.076;3.784;2023-05-07T14:28:58;24.20;99.90
45409;DHT22;31162;51.076;3.784;2023-05-07T14:31:24;23.90;99.90
45409;DHT22;31162;51.076;3.784;2023-05-07T14:33:50;23.80;99.90
45409;DHT22;31162;51.076;3.784;2023-05-07T14:36:19;23.50;99.90
45409;DHT22;31162;51.076;3.784;2023-05-07T14:38:48;22.90;99.90
45409;DHT22;31162;51.076;3.784;2023-05-07T14:41:14;22.30;99.90
45409;DHT22;31162;51.076;3.784;2023-05-07T14:43:42;21.70;99.90
45409;DHT22;31162;51.076;3.784;2023-05-07T14:46:09;21.00;99.90
45409;DHT22;31162;51.076;3.784;2023-05-07T14:48:37;20.40;99.90
45409;DHT22;31162;51.076;3.784;2023-05-07T14:51:02;20.10;99.90
45409;DHT22;31162;51.076;3.784;2023-05-07T14:53:28;19.70;99.90
45409;DHT22;31162;51.076;3.784;2023-05-07T14:55:56;19.60;99.90
45409;DHT22;31162;51.076;3.784;2023-05-07T14:58:22;19.40;99.90
45409;DHT22;31162;51.076;3.784;2023-05-07T15:00:50;19.20;99.90
45409;DHT22;31162;51.076;3.784;2023-05-07T15:03:16;18.80;99.90
45409;DHT22;31162;51.076;3.784;2023-05-07T15:05:42;18.80;99.90
45409;DHT22;31162;51.076;3.784;2023-05-07T15:08:10;18.50;99.90
45409;DHT22;31162;51.076;3.784;2023-05-07T15:10:36;18.30;99.90
45409;DHT22;31162;51.076;3.784;2023-05-07T15:13:09;18.40;99.90
45409;DHT22;31162;51.076;3.784;2023-05-07T15:15:35;18.40;99.90
45409;DHT22;31162;51.076;3.784;2023-05-07T15:18:02;18.50;99.90
45409;DHT22;31162;51.076;3.784;2023-05-07T15:20:28;18.40;99.90
45409;DHT22;31162;51.076;3.784;2023-05-07T15:22:54;18.40;99.90
45409;DHT22;31162;51.076;3.784;2023-05-07T15:25:20;18.30;99.90
45409;DHT22;31162;51.076;3.784;2023-05-07T15:27:46;18.30;99.90
45409;DHT22;31162;51.076;3.784;2023-05-07T15:30:15;18.50;99.90
45409;DHT22;31162;51.076;3.784;2023-05-07T15:32:43;18.40;99.90
45409;DHT22;31162;51.076;3.784;2023-05-07T15:35:09;18.60;99.90
45409;DHT22;31162;51.076;3.784;2023-05-07T15:37:35;18.60;99.90
45409;DHT22;31162;51.076;3.784;2023-05-07T15:40:01;18.60;99.90
45409;DHT22;31162;51.076;3.784;2023-05-07T15:42:28;18.60;99.90
45409;DHT22;31162;51.076;3.784;2023-05-07T15:44:55;18.50;99.90
45409;DHT22;31162;51.076;3.784;2023-05-07T15:47:24;18.20;99.90
45409;DHT22;31162;51.076;3.784;2023-05-07T15:49:49;18.20;99.90